Ana Sayfa
METAR-TAF:

METAR-TAF

Havaalanları :

Mid-Way Regional Airport

Midlothian / Waxahachie, Teksas, Amerika Birleşik Devletleri

Enlem: 32-27-21N, Boylam: 096-54-44W, yükseklik: 217 m

Güncel hava durumu gözlemi

Rapor saat 15:55 UTC de 20 dakika önce yapıldı.
Rüzgar güneydan 8 kt
Sıcaklık 31°C
Nem 71%
Basınç 1015 hPa
Görüş mesafesi: 16.1 km
2400 ft yükseklikte parçalı çok bulutlu
3200 ft yükseklikte parçalı çok bulutlu

METAR: KJWY 251555Z AUTO 19008KT 10SM BKN024 BKN032 31/25 A2997 RMK AO2 CIG 022V028 T03110247 TSNO $

Saat: 11:15 (16:15 UTC)


TAF: eksik

4.000'den fazla havaalanı için hava durumu gözlemleri ve tahminleri (METAR ve TAF raporları).

Kullanılabilir istasyonlar harita üzerinde sarı ve kırmızı noktalarla gösterilir.

İstasyonun adını görmek için fareyi noktanın üzerinde gezdirin.

Sonrasında hava gözlem ve tahminlerini görmek için tıklayın.

Haritayı değiştirmek için: yaklaştırmak için siyah artı işaretli yeşil düğmeye ve uzaklaştırmak için de eksi işaretli düğmeye hızla tıklayın; bitişik haritalar için yeşil okları kullanın.


METAR-TAF: